Terminal Aerodrome Forecast
Issued by NWS

Home | Current Version | Previous Version | Graphics & Text | Print | Product List | Glossary On
Versions: 1 2 3 4 5 6 7 8 9 10 11 12 13 14 15 16
283
FTUS43 KBIS 250527
TAFMOT
TAF
KMOT 250527Z 2506/2606 32021G29KT P6SM -SHRA OVC008
     FM251100 31024G34KT P6SM -SHRA OVC012
     FM251400 30023G34KT P6SM VCSH BKN035
     FM251600 30023G34KT P6SM SCT050
     FM260100 29011KT P6SM SKC=

USA.gov is the U.S. government's official web portal to all federal, state and local government web resources and services.